createdAt,value
2023-07-23T00:00:23.764Z,58.76
2023-07-23T00:02:50.323Z,58.64
2023-07-23T00:05:16.885Z,58.78
2023-07-23T00:07:43.442Z,59.58
2023-07-23T00:10:12.881Z,60.84
2023-07-23T00:12:39.385Z,59.79
2023-07-23T00:15:06.179Z,60.99
2023-07-23T00:17:32.728Z,61.28
2023-07-23T00:19:59.360Z,61.62
2023-07-23T00:22:27.095Z,61.04
2023-07-23T00:24:58.183Z,61.10
2023-07-23T00:27:24.746Z,61.80
2023-07-23T00:29:51.257Z,61.79
2023-07-23T00:32:17.737Z,61.55
2023-07-23T00:34:44.250Z,62.28
2023-07-23T00:37:10.912Z,62.20
2023-07-23T00:39:39.943Z,62.45
2023-07-23T00:42:06.561Z,62.83
2023-07-23T00:44:33.132Z,62.48
2023-07-23T00:47:01.230Z,63.62
2023-07-23T00:49:28.293Z,63.70
2023-07-23T00:51:54.816Z,63.94
2023-07-23T00:54:22.182Z,63.79
2023-07-23T00:56:48.974Z,64.12
2023-07-23T00:59:15.553Z,65.22
2023-07-23T01:01:42.167Z,63.75
2023-07-23T01:04:08.733Z,63.91
2023-07-23T01:06:37.558Z,63.96
2023-07-23T01:09:05.245Z,63.57
2023-07-23T01:11:32.364Z,62.98
2023-07-23T01:14:02.317Z,63.24
2023-07-23T01:16:28.867Z,63.55
2023-07-23T01:18:55.488Z,63.55
2023-07-23T01:21:22.006Z,63.59
2023-07-23T01:23:48.541Z,63.53
2023-07-23T01:26:17.385Z,62.86
2023-07-23T01:28:43.909Z,63.52
2023-07-23T01:31:13.639Z,64.01
2023-07-23T01:33:43.227Z,64.36
2023-07-23T01:36:10.798Z,64.47
2023-07-23T01:38:37.545Z,64.45
2023-07-23T01:41:05.153Z,63.99
2023-07-23T01:43:31.809Z,63.69
2023-07-23T01:45:58.300Z,63.85
2023-07-23T01:48:26.259Z,64.27
2023-07-23T01:50:52.778Z,64.79
2023-07-23T01:53:19.342Z,64.79
2023-07-23T01:55:45.857Z,64.19
2023-07-23T01:58:12.414Z,63.56
2023-07-23T02:00:39.460Z,63.32
2023-07-23T02:03:06.052Z,63.21
2023-07-23T02:05:32.593Z,63.28
2023-07-23T02:07:59.130Z,62.98
2023-07-23T02:10:25.654Z,63.00
2023-07-23T02:12:52.185Z,62.73
2023-07-23T02:15:19.845Z,63.23
2023-07-23T02:17:46.501Z,63.64
2023-07-23T02:20:13.163Z,63.43
2023-07-23T02:22:39.694Z,64.00
2023-07-23T02:25:06.554Z,64.25
2023-07-23T02:27:34.593Z,64.43
2023-07-23T02:30:01.077Z,64.65
2023-07-23T02:32:27.665Z,63.74
2023-07-23T02:34:54.198Z,63.58
2023-07-23T02:37:20.721Z,63.89
2023-07-23T02:39:47.240Z,63.55
2023-07-23T02:42:13.724Z,63.71
2023-07-23T02:44:40.516Z,63.73
2023-07-23T02:47:07.113Z,64.11
2023-07-23T02:49:33.611Z,63.68
2023-07-23T02:52:00.256Z,63.98
2023-07-23T02:54:26.757Z,64.68
2023-07-23T02:56:53.245Z,64.82
2023-07-23T02:59:19.786Z,64.86
2023-07-23T03:01:46.290Z,65.32
2023-07-23T03:04:14.901Z,65.23
2023-07-23T03:06:41.474Z,65.02
2023-07-23T03:09:08.063Z,64.66
2023-07-23T03:11:34.575Z,65.26
2023-07-23T03:14:01.107Z,64.49
2023-07-23T03:16:27.634Z,65.21
2023-07-23T03:18:54.187Z,64.91
2023-07-23T03:21:20.779Z,64.80
2023-07-23T03:23:47.299Z,64.08
2023-07-23T03:26:13.793Z,64.15
2023-07-23T03:28:41.031Z,63.66
2023-07-23T03:31:07.569Z,64.15
2023-07-23T03:33:34.084Z,64.08
2023-07-23T03:36:00.550Z,63.69
2023-07-23T03:38:27.038Z,64.11
2023-07-23T03:40:53.570Z,64.08
2023-07-23T03:43:20.056Z,64.72
2023-07-23T03:45:46.669Z,65.26
2023-07-23T03:48:13.261Z,64.98
2023-07-23T03:50:39.826Z,64.45
2023-07-23T03:53:06.322Z,65.69
2023-07-23T03:55:34.433Z,65.78
2023-07-23T03:58:01.027Z,65.83
2023-07-23T04:00:27.531Z,67.11
2023-07-23T04:02:54.059Z,66.54
2023-07-23T04:05:20.646Z,66.41
2023-07-23T04:07:47.131Z,66.36
2023-07-23T04:10:13.674Z,66.07
2023-07-23T04:12:40.224Z,66.26
2023-07-23T04:15:07.006Z,66.78
2023-07-23T04:17:33.729Z,66.85
2023-07-23T04:20:00.371Z,66.65
2023-07-23T04:22:26.902Z,66.94
2023-07-23T04:24:53.603Z,66.49
2023-07-23T04:27:20.191Z,66.54
2023-07-23T04:29:46.700Z,66.16
2023-07-23T04:32:13.213Z,65.89
2023-07-23T04:34:40.310Z,65.66
2023-07-23T04:37:08.057Z,65.72
2023-07-23T04:39:34.817Z,65.83
2023-07-23T04:42:01.452Z,66.53
2023-07-23T04:44:28.246Z,66.66
2023-07-23T04:46:54.756Z,66.67
2023-07-23T04:49:21.244Z,66.62
2023-07-23T04:51:47.740Z,66.22
2023-07-23T04:54:14.304Z,66.55
2023-07-23T04:56:40.933Z,66.18
2023-07-23T04:59:08.600Z,65.95
2023-07-23T05:01:35.247Z,65.41
2023-07-23T05:04:01.886Z,65.63
2023-07-23T05:06:28.455Z,65.00
2023-07-23T05:08:54.946Z,64.49
2023-07-23T05:11:21.402Z,64.29
2023-07-23T05:13:48.047Z,64.43
2023-07-23T05:16:14.669Z,64.68
2023-07-23T05:18:41.219Z,65.55
2023-07-23T05:21:07.835Z,66.16
2023-07-23T05:23:34.383Z,66.95
2023-07-23T05:26:00.945Z,67.66
2023-07-23T05:28:27.427Z,67.18
2023-07-23T05:31:00.796Z,67.49
2023-07-23T05:33:27.676Z,67.05
2023-07-23T05:35:54.492Z,68.52
2023-07-23T05:38:21.064Z,68.45
2023-07-23T05:40:59.816Z,67.73
2023-07-23T05:43:29.248Z,67.04
2023-07-23T05:45:57.884Z,66.95
2023-07-23T05:48:24.482Z,67.51
2023-07-23T05:50:51.018Z,67.18
2023-07-23T05:53:17.623Z,66.99
2023-07-23T05:55:44.150Z,66.84
2023-07-23T05:58:10.628Z,66.27
2023-07-23T06:00:37.133Z,67.18
2023-07-23T06:03:03.918Z,66.99
2023-07-23T06:05:30.516Z,67.23
2023-07-23T06:07:57.101Z,68.08
2023-07-23T06:10:23.667Z,66.90
2023-07-23T06:12:50.199Z,67.12
2023-07-23T06:15:16.810Z,67.34
2023-07-23T06:17:43.351Z,67.10
2023-07-23T06:20:10.217Z,67.38
2023-07-23T06:22:36.720Z,67.65
2023-07-23T06:25:03.547Z,66.32
2023-07-23T06:27:30.055Z,65.45
2023-07-23T06:29:56.581Z,64.60
2023-07-23T06:32:23.227Z,64.91
2023-07-23T06:34:49.747Z,64.64
2023-07-23T06:37:16.194Z,64.33
2023-07-23T06:39:42.679Z,63.59
2023-07-23T06:42:09.177Z,62.42
2023-07-23T06:44:35.711Z,60.93
2023-07-23T06:47:02.262Z,60.58
2023-07-23T06:49:29.794Z,59.48
2023-07-23T06:51:57.029Z,57.18
2023-07-23T06:54:23.950Z,57.33
2023-07-23T06:56:54.958Z,55.40
2023-07-23T06:59:21.857Z,55.30
2023-07-23T07:01:48.474Z,54.27
2023-07-23T07:04:15.041Z,52.41
2023-07-23T07:06:41.564Z,50.66
2023-07-23T07:09:08.135Z,51.59
2023-07-23T07:11:34.664Z,50.37
2023-07-23T07:14:01.190Z,47.58
2023-07-23T07:16:27.738Z,45.55
2023-07-23T07:18:54.757Z,46.62
2023-07-23T07:21:21.263Z,46.82
2023-07-23T07:23:47.810Z,48.70
2023-07-23T07:26:14.376Z,46.68
2023-07-23T07:28:40.940Z,45.69
2023-07-23T07:31:07.541Z,43.73
2023-07-23T07:33:34.123Z,43.81
2023-07-23T07:36:01.609Z,41.96
2023-07-23T07:38:28.697Z,41.75
2023-07-23T07:40:57.330Z,40.36
2023-07-23T07:43:24.473Z,43.64
2023-07-23T07:45:55.333Z,42.35
2023-07-23T07:48:22.245Z,42.88
2023-07-23T07:50:57.619Z,41.51
2023-07-23T07:53:24.161Z,41.65
2023-07-23T07:55:50.683Z,41.60
2023-07-23T07:58:18.042Z,41.66
2023-07-23T08:00:44.864Z,40.33
2023-07-23T08:03:11.873Z,41.37
2023-07-23T08:05:39.152Z,40.13
2023-07-23T08:08:07.076Z,40.73
2023-07-23T08:10:35.461Z,39.54
2023-07-23T08:13:03.573Z,42.14
2023-07-23T08:15:32.637Z,40.49
2023-07-23T08:18:00.778Z,39.08
2023-07-23T08:20:33.793Z,37.50
2023-07-23T08:23:00.570Z,34.42
2023-07-23T08:25:27.450Z,35.15
2023-07-23T08:28:03.082Z,33.50
2023-07-23T08:30:30.806Z,33.25
2023-07-23T08:32:59.284Z,34.17
2023-07-23T08:35:27.548Z,34.77
2023-07-23T08:37:55.635Z,33.42
2023-07-23T08:40:24.718Z,33.96
2023-07-23T08:42:56.984Z,33.48
2023-07-23T08:45:50.660Z,33.38
2023-07-23T08:48:18.369Z,33.09
2023-07-23T08:50:51.298Z,33.22
2023-07-23T08:53:19.201Z,33.77
2023-07-23T08:55:47.454Z,33.57
2023-07-23T08:58:18.380Z,33.04
2023-07-23T09:00:46.584Z,32.96
2023-07-23T09:03:15.797Z,33.22
2023-07-23T09:05:42.476Z,33.17
2023-07-23T09:08:09.008Z,31.81
2023-07-23T09:10:35.586Z,34.25
2023-07-23T09:13:15.606Z,32.69
2023-07-23T09:15:43.204Z,31.42
2023-07-23T09:18:10.233Z,30.28
2023-07-23T09:20:36.815Z,28.37
2023-07-23T09:23:07.813Z,27.18
2023-07-23T09:25:34.937Z,27.09
2023-07-23T09:28:01.515Z,26.27
2023-07-23T09:30:29.071Z,25.27
2023-07-23T09:33:03.048Z,25.62
2023-07-23T09:35:31.352Z,25.23
2023-07-23T09:37:59.772Z,23.32
2023-07-23T09:40:41.119Z,23.04
2023-07-23T09:43:08.484Z,23.21
2023-07-23T09:45:39.990Z,23.11
2023-07-23T09:48:16.059Z,22.45
2023-07-23T09:50:43.240Z,22.30
2023-07-23T09:53:10.451Z,21.89
2023-07-23T09:55:38.195Z,21.70
2023-07-23T09:58:06.914Z,20.73
2023-07-23T10:00:35.224Z,20.60
2023-07-23T10:03:04.023Z,19.99
2023-07-23T10:05:32.804Z,20.18
2023-07-23T10:08:04.808Z,20.13
2023-07-23T10:10:31.781Z,19.28
2023-07-23T10:12:58.335Z,20.71
2023-07-23T10:15:24.969Z,19.47
2023-07-23T10:17:55.994Z,19.72
2023-07-23T10:20:23.373Z,19.06
2023-07-23T10:22:50.304Z,18.96
2023-07-23T10:25:34.629Z,19.47
2023-07-23T10:28:09.015Z,19.96
2023-07-23T10:30:39.868Z,19.09
2023-07-23T10:33:13.003Z,19.47
2023-07-23T10:35:55.898Z,21.26
2023-07-23T10:38:27.689Z,18.92
2023-07-23T10:40:54.465Z,20.08
2023-07-23T10:43:20.979Z,20.21
2023-07-23T10:46:11.646Z,19.84
2023-07-23T10:48:43.104Z,20.63
2023-07-23T10:51:11.591Z,20.10
2023-07-23T10:53:40.585Z,20.11
2023-07-23T10:56:23.246Z,21.21
2023-07-23T10:58:50.764Z,22.17
2023-07-23T11:01:24.963Z,21.83
2023-07-23T11:03:55.281Z,23.27
2023-07-23T11:06:29.687Z,22.13
2023-07-23T11:08:58.925Z,22.63
2023-07-23T11:11:40.470Z,21.17
2023-07-23T11:14:21.230Z,20.10
2023-07-23T11:16:50.055Z,21.66
2023-07-23T11:19:21.226Z,21.96
2023-07-23T11:21:53.273Z,25.01
2023-07-23T11:24:21.330Z,23.92
2023-07-23T11:26:48.664Z,25.65
2023-07-23T11:29:15.449Z,25.53
2023-07-23T11:31:42.971Z,24.05
2023-07-23T11:34:10.079Z,23.57
2023-07-23T11:36:39.282Z,24.40
2023-07-23T11:39:07.490Z,21.81
2023-07-23T11:41:42.252Z,20.72
2023-07-23T11:44:09.733Z,18.90
2023-07-23T11:46:40.916Z,20.52
2023-07-23T11:49:11.024Z,21.42
2023-07-23T11:51:38.776Z,22.23
2023-07-23T11:54:13.027Z,23.40
2023-07-23T11:56:47.073Z,20.77
2023-07-23T11:59:18.316Z,22.14
2023-07-23T12:01:46.423Z,23.68
2023-07-23T12:04:13.215Z,22.64
2023-07-23T12:06:41.111Z,23.46
2023-07-23T12:09:09.734Z,24.03
2023-07-23T12:11:39.066Z,24.48
2023-07-23T12:14:07.741Z,22.76
2023-07-23T12:16:48.254Z,22.05
2023-07-23T12:19:19.940Z,20.98
2023-07-23T12:21:48.891Z,22.21
2023-07-23T12:24:30.038Z,23.22
2023-07-23T12:26:58.641Z,23.56
2023-07-23T12:29:26.850Z,24.92
2023-07-23T12:32:17.810Z,24.80
2023-07-23T12:34:46.319Z,26.73
2023-07-23T12:37:14.105Z,25.72
2023-07-23T12:39:40.921Z,26.20
2023-07-23T12:42:07.809Z,26.55
2023-07-23T12:44:35.412Z,27.34
2023-07-23T12:47:02.150Z,27.02
2023-07-23T12:49:28.689Z,28.03
2023-07-23T12:51:55.173Z,28.04
2023-07-23T12:54:21.639Z,28.42
2023-07-23T12:56:48.195Z,27.69
2023-07-23T12:59:14.764Z,26.56
2023-07-23T13:01:42.490Z,27.13
2023-07-23T13:04:09.309Z,27.15
2023-07-23T13:06:35.955Z,27.69
2023-07-23T13:09:02.540Z,28.01
2023-07-23T13:11:29.048Z,28.83
2023-07-23T13:13:55.546Z,29.82
2023-07-23T13:16:22.143Z,31.20
2023-07-23T13:18:48.867Z,31.72
2023-07-23T13:21:15.555Z,31.71
2023-07-23T13:23:43.032Z,32.07
2023-07-23T13:26:09.697Z,32.04
2023-07-23T13:28:36.202Z,31.86
2023-07-23T13:31:02.974Z,32.16
2023-07-23T13:33:29.567Z,32.07
2023-07-23T13:35:56.108Z,32.83
2023-07-23T13:38:23.793Z,32.22
2023-07-23T13:40:51.563Z,32.24
2023-07-23T13:43:18.128Z,32.46
2023-07-23T13:45:44.683Z,33.30
2023-07-23T13:48:11.224Z,34.41
2023-07-23T13:50:49.616Z,34.58
2023-07-23T13:53:18.202Z,33.20
2023-07-23T13:55:44.757Z,35.63
2023-07-23T13:58:11.318Z,34.10
2023-07-23T14:00:37.971Z,33.86
2023-07-23T14:03:05.065Z,34.78
2023-07-23T14:05:32.492Z,34.09
2023-07-23T14:07:59.298Z,34.27
2023-07-23T14:10:26.283Z,33.89
2023-07-23T14:12:52.909Z,34.52
2023-07-23T14:15:19.601Z,35.56
2023-07-23T14:17:46.245Z,36.04
2023-07-23T14:20:12.749Z,34.07
2023-07-23T14:22:39.397Z,34.07
2023-07-23T14:25:06.106Z,35.01
2023-07-23T14:27:32.702Z,34.07
2023-07-23T14:29:59.251Z,32.44
2023-07-23T14:32:25.821Z,32.14
2023-07-23T14:34:52.409Z,32.09
2023-07-23T14:37:18.982Z,32.17
2023-07-23T14:39:45.553Z,34.77
2023-07-23T14:42:12.436Z,34.13
2023-07-23T14:44:41.020Z,34.17
2023-07-23T14:47:08.819Z,34.46
2023-07-23T14:49:37.418Z,33.40
2023-07-23T14:52:04.868Z,33.52
2023-07-23T14:54:31.444Z,34.38
2023-07-23T14:56:58.006Z,34.29
2023-07-23T14:59:24.542Z,35.86
2023-07-23T15:01:51.144Z,34.75
2023-07-23T15:04:17.719Z,36.03
2023-07-23T15:06:44.270Z,33.03
2023-07-23T15:09:13.222Z,33.41
2023-07-23T15:11:41.228Z,33.08
2023-07-23T15:14:08.037Z,33.42
2023-07-23T15:16:35.076Z,33.45
2023-07-23T15:19:01.919Z,32.47
2023-07-23T15:21:29.024Z,32.16
2023-07-23T15:23:56.176Z,32.76
2023-07-23T15:26:26.379Z,34.73
2023-07-23T15:28:57.168Z,32.26
2023-07-23T15:31:23.689Z,31.43
2023-07-23T15:33:50.167Z,33.34
2023-07-23T15:36:16.692Z,33.52
2023-07-23T15:38:43.219Z,32.64
2023-07-23T15:41:09.917Z,33.23
2023-07-23T15:43:37.175Z,33.46
2023-07-23T15:46:03.670Z,33.32
2023-07-23T15:48:30.192Z,32.25
2023-07-23T15:50:56.688Z,34.04
2023-07-23T15:53:23.278Z,33.54
2023-07-23T15:55:49.854Z,33.69
2023-07-23T15:58:16.357Z,34.00
2023-07-23T16:00:43.240Z,34.24
2023-07-23T16:03:09.810Z,34.33
2023-07-23T16:05:36.501Z,36.28
2023-07-23T16:08:03.054Z,35.14
2023-07-23T16:10:29.875Z,34.65
2023-07-23T16:12:57.611Z,36.33
2023-07-23T16:15:25.005Z,35.94
2023-07-23T16:17:51.618Z,36.48
2023-07-23T16:20:18.292Z,36.42
2023-07-23T16:22:44.830Z,37.14
2023-07-23T16:25:11.393Z,36.93
2023-07-23T16:27:38.523Z,37.63
2023-07-23T16:30:05.842Z,37.50
2023-07-23T16:32:32.806Z,38.09
2023-07-23T16:34:59.577Z,38.08
2023-07-23T16:37:29.271Z,38.74
2023-07-23T16:39:57.627Z,36.73
2023-07-23T16:42:26.811Z,37.22
2023-07-23T16:44:54.119Z,36.81
2023-07-23T16:47:20.708Z,36.83
2023-07-23T16:49:47.261Z,37.42
2023-07-23T16:52:13.815Z,38.28
2023-07-23T16:54:40.351Z,38.78
2023-07-23T16:57:08.380Z,38.17
2023-07-23T16:59:34.882Z,39.94
2023-07-23T17:02:01.426Z,40.42
2023-07-23T17:04:28.512Z,40.10
2023-07-23T17:06:55.032Z,40.14
2023-07-23T17:09:21.550Z,39.98
2023-07-23T17:11:48.693Z,39.81
2023-07-23T17:14:15.290Z,40.15
2023-07-23T17:16:41.990Z,40.39
2023-07-23T17:19:08.497Z,40.68
2023-07-23T17:21:35.038Z,39.56
2023-07-23T17:24:01.573Z,38.70
2023-07-23T17:26:28.377Z,40.91
2023-07-23T17:28:55.140Z,41.00
2023-07-23T17:31:27.564Z,40.49
2023-07-23T17:33:54.114Z,41.07
2023-07-23T17:36:20.655Z,40.90
2023-07-23T17:38:47.267Z,41.11
2023-07-23T17:41:17.152Z,41.53
2023-07-23T17:43:43.986Z,42.25
2023-07-23T17:46:10.586Z,41.00
2023-07-23T17:48:37.160Z,42.39
2023-07-23T17:51:03.822Z,42.25
2023-07-23T17:53:30.369Z,43.39
2023-07-23T17:55:56.831Z,42.25
2023-07-23T17:58:25.587Z,42.40
2023-07-23T18:00:52.147Z,44.11
2023-07-23T18:03:19.746Z,44.69
2023-07-23T18:05:53.755Z,42.89
2023-07-23T18:08:20.308Z,44.43
2023-07-23T18:10:46.830Z,46.18
2023-07-23T18:13:13.590Z,47.02
2023-07-23T18:15:40.406Z,46.10
2023-07-23T18:18:06.934Z,44.81
2023-07-23T18:20:33.472Z,44.68
2023-07-23T18:23:01.785Z,45.71
2023-07-23T18:25:28.389Z,47.83
2023-07-23T18:27:55.709Z,47.37
2023-07-23T18:30:22.227Z,48.14
2023-07-23T18:32:48.912Z,47.38
2023-07-23T18:35:15.856Z,48.76
2023-07-23T18:37:42.476Z,48.66
2023-07-23T18:40:09.416Z,48.41
2023-07-23T18:42:35.986Z,48.51
2023-07-23T18:45:04.316Z,49.15
2023-07-23T18:47:30.879Z,49.84
2023-07-23T18:49:57.402Z,49.88
2023-07-23T18:52:26.357Z,50.00
2023-07-23T18:54:54.498Z,51.24
2023-07-23T18:57:20.986Z,48.43
2023-07-23T18:59:47.562Z,47.87
2023-07-23T19:02:14.069Z,47.30
2023-07-23T19:04:46.048Z,46.71
2023-07-23T19:07:14.048Z,46.95
2023-07-23T19:09:40.704Z,47.61
2023-07-23T19:12:07.958Z,48.19
2023-07-23T19:14:34.528Z,48.36
2023-07-23T19:17:01.204Z,48.53
2023-07-23T19:19:28.408Z,48.98
2023-07-23T19:21:55.178Z,49.11
2023-07-23T19:24:21.704Z,49.83
2023-07-23T19:26:48.370Z,49.11
2023-07-23T19:29:14.937Z,49.74
2023-07-23T19:31:42.612Z,50.18
2023-07-23T19:34:09.317Z,51.58
2023-07-23T19:36:37.841Z,53.55
2023-07-23T19:39:04.601Z,53.98
2023-07-23T19:41:31.434Z,53.95
2023-07-23T19:44:00.126Z,54.46
2023-07-23T19:46:26.706Z,55.46
2023-07-23T19:48:53.266Z,55.25
2023-07-23T19:51:19.755Z,55.31
2023-07-23T19:53:47.456Z,56.07
2023-07-23T19:56:15.900Z,55.72
2023-07-23T19:58:42.474Z,54.37
2023-07-23T20:01:09.024Z,55.15
2023-07-23T20:03:35.662Z,54.63
2023-07-23T20:06:02.219Z,54.29
2023-07-23T20:08:28.991Z,54.99
2023-07-23T20:10:55.563Z,54.45
2023-07-23T20:13:22.277Z,55.06
2023-07-23T20:15:50.364Z,55.04
2023-07-23T20:18:16.971Z,55.06
2023-07-23T20:20:48.587Z,54.88
2023-07-23T20:23:15.268Z,55.01
2023-07-23T20:25:41.877Z,55.35
2023-07-23T20:28:09.368Z,56.13
2023-07-23T20:30:36.310Z,56.15
2023-07-23T20:33:03.287Z,57.10
2023-07-23T20:35:30.481Z,57.48
2023-07-23T20:37:57.416Z,56.79
2023-07-23T20:40:24.259Z,57.67
2023-07-23T20:42:51.136Z,58.21
2023-07-23T20:45:17.790Z,58.44
2023-07-23T20:47:44.431Z,58.68
2023-07-23T20:50:11.074Z,59.14
2023-07-23T20:52:39.515Z,59.98
2023-07-23T20:55:07.198Z,60.07
2023-07-23T20:57:33.755Z,59.77
2023-07-23T21:00:00.215Z,59.96
2023-07-23T21:02:26.727Z,60.17
2023-07-23T21:04:53.326Z,60.13
2023-07-23T21:07:19.772Z,60.54
2023-07-23T21:09:46.424Z,60.73
2023-07-23T21:12:15.628Z,60.28
2023-07-23T21:14:42.118Z,60.74
2023-07-23T21:17:08.685Z,60.19
2023-07-23T21:19:35.202Z,59.93
2023-07-23T21:22:01.763Z,59.74
2023-07-23T21:24:28.375Z,60.02
2023-07-23T21:26:54.887Z,60.04
2023-07-23T21:29:24.172Z,60.12
2023-07-23T21:31:50.732Z,60.45
2023-07-23T21:34:17.247Z,59.95
2023-07-23T21:36:43.770Z,59.87
2023-07-23T21:39:10.255Z,59.82
2023-07-23T21:41:36.729Z,59.80
2023-07-23T21:44:03.336Z,59.57
2023-07-23T21:46:30.131Z,59.30
2023-07-23T21:48:56.771Z,58.53
2023-07-23T21:51:23.327Z,58.97
2023-07-23T21:53:49.860Z,59.56
2023-07-23T21:56:16.369Z,59.79
2023-07-23T21:58:42.881Z,59.41
2023-07-23T22:01:09.761Z,60.07
2023-07-23T22:03:36.359Z,60.21
2023-07-23T22:06:02.992Z,61.23
2023-07-23T22:08:29.685Z,61.01
2023-07-23T22:10:56.138Z,60.47
2023-07-23T22:13:22.724Z,59.70
2023-07-23T22:15:49.845Z,59.89
2023-07-23T22:18:16.369Z,59.74
2023-07-23T22:20:42.895Z,60.45
2023-07-23T22:23:09.393Z,60.51
2023-07-23T22:25:36.014Z,60.86
2023-07-23T22:28:02.641Z,61.42
2023-07-23T22:30:31.331Z,61.26
2023-07-23T22:32:58.842Z,61.01
2023-07-23T22:35:25.638Z,60.23
2023-07-23T22:37:52.299Z,60.97
2023-07-23T22:40:18.883Z,60.84
2023-07-23T22:42:47.128Z,61.19
2023-07-23T22:45:14.533Z,61.02
2023-07-23T22:47:41.223Z,61.46
2023-07-23T22:50:08.108Z,60.97
2023-07-23T22:52:37.345Z,61.45
2023-07-23T22:55:04.308Z,61.94
2023-07-23T22:57:31.566Z,62.13
2023-07-23T23:00:01.254Z,62.14
2023-07-23T23:02:27.935Z,61.18
2023-07-23T23:04:54.467Z,61.21
2023-07-23T23:07:20.966Z,61.11
2023-07-23T23:09:47.451Z,61.38
2023-07-23T23:12:14.069Z,61.52
2023-07-23T23:14:40.612Z,60.91
2023-07-23T23:17:07.168Z,60.57
2023-07-23T23:19:33.719Z,60.59
2023-07-23T23:22:00.265Z,60.47
2023-07-23T23:24:26.835Z,59.77
2023-07-23T23:26:53.441Z,60.43
2023-07-23T23:29:20.195Z,59.57
2023-07-23T23:31:46.832Z,60.26
2023-07-23T23:34:13.295Z,60.74
2023-07-23T23:36:39.808Z,59.71
2023-07-23T23:39:06.469Z,60.05
2023-07-23T23:41:32.958Z,59.93
2023-07-23T23:43:59.482Z,60.15
2023-07-23T23:46:26.083Z,59.90
2023-07-23T23:48:52.688Z,61.10
2023-07-23T23:51:21.267Z,61.46
2023-07-23T23:53:47.998Z,62.31
2023-07-23T23:56:14.568Z,62.06
2023-07-23T23:58:41.113Z,61.12
